Terminal Aerodrome Forecast
Issued by NWS

Home | Current Version | Previous Version | Text Only | Print | Product List | Glossary On
Versions: 1 2 3 4 5 6 7 8 9 10 11 12 13 14 15 16 17 18
000
FTUS41 KBTV 230300 AAA
TAFMPV
TAF AMD
KMPV 230307Z 2303/2324 30014G20KT P6SM BKN035
     FM230600 VRB03KT P6SM SCT035 BKN080
     FM231400 30008KT P6SM SCT040 BKN070
     FM231800 30009KT P6SM BKN050=

USA.gov is the U.S. government's official web portal to all federal, state and local government web resources and services.